sensor_id;sensor_type;location;lat;lon;timestamp;P1;durP1;ratioP1;P2;durP2;ratioP2
11911;SDS011;6016;41.928;25.556;2024-01-16T00:02:01;54.78;;;21.90;;
11911;SDS011;6016;41.928;25.556;2024-01-16T00:04:29;49.38;;;20.70;;
11911;SDS011;6016;41.928;25.556;2024-01-16T00:06:56;50.40;;;20.35;;
11911;SDS011;6016;41.928;25.556;2024-01-16T00:09:24;48.65;;;19.45;;
11911;SDS011;6016;41.928;25.556;2024-01-16T00:11:51;50.58;;;19.67;;
11911;SDS011;6016;41.928;25.556;2024-01-16T00:14:18;48.35;;;19.70;;
11911;SDS011;6016;41.928;25.556;2024-01-16T00:16:45;49.50;;;18.65;;
11911;SDS011;6016;41.928;25.556;2024-01-16T00:19:13;46.97;;;18.40;;
11911;SDS011;6016;41.928;25.556;2024-01-16T00:21:40;45.22;;;17.75;;
11911;SDS011;6016;41.928;25.556;2024-01-16T00:24:08;47.33;;;19.17;;
11911;SDS011;6016;41.928;25.556;2024-01-16T00:26:36;47.90;;;18.48;;
11911;SDS011;6016;41.928;25.556;2024-01-16T00:29:03;44.10;;;18.10;;
11911;SDS011;6016;41.928;25.556;2024-01-16T00:31:31;43.60;;;17.55;;
11911;SDS011;6016;41.928;25.556;2024-01-16T00:33:58;44.78;;;19.08;;
11911;SDS011;6016;41.928;25.556;2024-01-16T00:36:24;41.92;;;17.52;;
11911;SDS011;6016;41.928;25.556;2024-01-16T00:38:51;42.72;;;17.15;;
11911;SDS011;6016;41.928;25.556;2024-01-16T00:41:18;43.50;;;17.02;;
11911;SDS011;6016;41.928;25.556;2024-01-16T00:43:47;44.25;;;17.42;;
11911;SDS011;6016;41.928;25.556;2024-01-16T00:46:14;45.85;;;17.42;;
11911;SDS011;6016;41.928;25.556;2024-01-16T00:48:41;48.65;;;17.92;;
11911;SDS011;6016;41.928;25.556;2024-01-16T00:51:08;50.03;;;18.50;;
11911;SDS011;6016;41.928;25.556;2024-01-16T00:53:39;40.75;;;17.70;;
11911;SDS011;6016;41.928;25.556;2024-01-16T00:56:06;49.38;;;19.13;;
11911;SDS011;6016;41.928;25.556;2024-01-16T00:58:33;47.00;;;18.48;;
11911;SDS011;6016;41.928;25.556;2024-01-16T01:01:02;47.67;;;18.45;;
11911;SDS011;6016;41.928;25.556;2024-01-16T01:03:29;50.20;;;20.23;;
11911;SDS011;6016;41.928;25.556;2024-01-16T01:05:56;45.45;;;18.83;;
11911;SDS011;6016;41.928;25.556;2024-01-16T01:08:23;41.60;;;18.00;;
11911;SDS011;6016;41.928;25.556;2024-01-16T01:10:50;44.08;;;18.75;;
11911;SDS011;6016;41.928;25.556;2024-01-16T01:13:17;45.10;;;18.17;;
11911;SDS011;6016;41.928;25.556;2024-01-16T01:15:44;47.35;;;19.02;;
11911;SDS011;6016;41.928;25.556;2024-01-16T01:18:13;48.35;;;19.33;;
11911;SDS011;6016;41.928;25.556;2024-01-16T01:20:40;43.78;;;18.33;;
11911;SDS011;6016;41.928;25.556;2024-01-16T01:23:07;54.72;;;19.45;;
11911;SDS011;6016;41.928;25.556;2024-01-16T01:25:34;47.20;;;20.35;;
11911;SDS011;6016;41.928;25.556;2024-01-16T01:28:01;50.33;;;21.15;;
11911;SDS011;6016;41.928;25.556;2024-01-16T01:30:28;45.58;;;19.27;;
11911;SDS011;6016;41.928;25.556;2024-01-16T01:32:55;52.30;;;20.83;;
11911;SDS011;6016;41.928;25.556;2024-01-16T01:35:24;48.67;;;20.58;;
11911;SDS011;6016;41.928;25.556;2024-01-16T01:37:51;51.83;;;21.15;;
11911;SDS011;6016;41.928;25.556;2024-01-16T01:40:18;49.47;;;20.45;;
11911;SDS011;6016;41.928;25.556;2024-01-16T01:42:45;49.35;;;20.33;;
11911;SDS011;6016;41.928;25.556;2024-01-16T01:45:12;52.03;;;21.02;;
11911;SDS011;6016;41.928;25.556;2024-01-16T01:47:39;51.65;;;21.45;;
11911;SDS011;6016;41.928;25.556;2024-01-16T01:50:08;54.17;;;20.40;;
11911;SDS011;6016;41.928;25.556;2024-01-16T01:52:36;52.47;;;21.70;;
11911;SDS011;6016;41.928;25.556;2024-01-16T01:55:07;52.10;;;21.27;;
11911;SDS011;6016;41.928;25.556;2024-01-16T01:57:37;47.70;;;20.20;;
11911;SDS011;6016;41.928;25.556;2024-01-16T02:00:04;48.38;;;19.00;;
11911;SDS011;6016;41.928;25.556;2024-01-16T02:02:33;45.95;;;18.67;;
11911;SDS011;6016;41.928;25.556;2024-01-16T02:05:01;52.00;;;20.20;;
11911;SDS011;6016;41.928;25.556;2024-01-16T02:07:28;53.42;;;20.60;;
11911;SDS011;6016;41.928;25.556;2024-01-16T02:09:59;48.75;;;19.40;;
11911;SDS011;6016;41.928;25.556;2024-01-16T02:12:26;50.28;;;18.92;;
11911;SDS011;6016;41.928;25.556;2024-01-16T02:14:53;48.58;;;20.25;;
11911;SDS011;6016;41.928;25.556;2024-01-16T02:17:20;51.78;;;21.10;;
11911;SDS011;6016;41.928;25.556;2024-01-16T02:19:48;52.50;;;20.52;;
11911;SDS011;6016;41.928;25.556;2024-01-16T02:22:15;45.92;;;20.25;;
11911;SDS011;6016;41.928;25.556;2024-01-16T02:24:48;52.95;;;22.42;;
11911;SDS011;6016;41.928;25.556;2024-01-16T02:27:15;49.40;;;20.80;;
11911;SDS011;6016;41.928;25.556;2024-01-16T02:29:42;58.10;;;22.08;;
11911;SDS011;6016;41.928;25.556;2024-01-16T02:32:10;53.25;;;22.27;;
11911;SDS011;6016;41.928;25.556;2024-01-16T02:34:39;52.92;;;21.70;;
11911;SDS011;6016;41.928;25.556;2024-01-16T02:37:06;59.75;;;22.52;;
11911;SDS011;6016;41.928;25.556;2024-01-16T02:39:33;58.42;;;23.50;;
11911;SDS011;6016;41.928;25.556;2024-01-16T02:42:02;69.40;;;25.17;;
11911;SDS011;6016;41.928;25.556;2024-01-16T02:44:29;62.97;;;25.10;;
11911;SDS011;6016;41.928;25.556;2024-01-16T02:46:56;58.03;;;24.58;;
11911;SDS011;6016;41.928;25.556;2024-01-16T02:49:23;63.08;;;24.60;;
11911;SDS011;6016;41.928;25.556;2024-01-16T02:51:51;65.35;;;25.58;;
11911;SDS011;6016;41.928;25.556;2024-01-16T02:54:18;55.28;;;22.02;;
11911;SDS011;6016;41.928;25.556;2024-01-16T02:56:46;56.78;;;22.75;;
11911;SDS011;6016;41.928;25.556;2024-01-16T02:59:14;55.90;;;22.58;;
11911;SDS011;6016;41.928;25.556;2024-01-16T03:01:42;56.03;;;23.13;;
11911;SDS011;6016;41.928;25.556;2024-01-16T03:04:09;55.90;;;22.55;;
11911;SDS011;6016;41.928;25.556;2024-01-16T03:06:36;57.28;;;23.10;;
11911;SDS011;6016;41.928;25.556;2024-01-16T03:09:03;51.78;;;22.17;;
11911;SDS011;6016;41.928;25.556;2024-01-16T03:11:32;56.75;;;21.80;;
11911;SDS011;6016;41.928;25.556;2024-01-16T03:13:59;54.60;;;22.17;;
11911;SDS011;6016;41.928;25.556;2024-01-16T03:16:27;54.20;;;21.92;;
11911;SDS011;6016;41.928;25.556;2024-01-16T03:18:55;48.92;;;20.60;;
11911;SDS011;6016;41.928;25.556;2024-01-16T03:21:22;48.30;;;21.20;;
11911;SDS011;6016;41.928;25.556;2024-01-16T03:23:49;49.60;;;20.95;;
11911;SDS011;6016;41.928;25.556;2024-01-16T03:26:17;50.47;;;20.23;;
11911;SDS011;6016;41.928;25.556;2024-01-16T03:28:44;51.78;;;20.83;;
11911;SDS011;6016;41.928;25.556;2024-01-16T03:31:12;49.25;;;20.92;;
11911;SDS011;6016;41.928;25.556;2024-01-16T03:33:40;54.38;;;20.73;;
11911;SDS011;6016;41.928;25.556;2024-01-16T03:36:08;50.67;;;18.52;;
11911;SDS011;6016;41.928;25.556;2024-01-16T03:38:36;46.45;;;19.60;;
11911;SDS011;6016;41.928;25.556;2024-01-16T03:41:04;51.40;;;19.63;;
11911;SDS011;6016;41.928;25.556;2024-01-16T03:43:32;50.10;;;19.58;;
11911;SDS011;6016;41.928;25.556;2024-01-16T03:46:00;55.00;;;19.83;;
11911;SDS011;6016;41.928;25.556;2024-01-16T03:48:27;54.58;;;20.58;;
11911;SDS011;6016;41.928;25.556;2024-01-16T03:50:56;49.92;;;20.73;;
11911;SDS011;6016;41.928;25.556;2024-01-16T03:53:23;56.50;;;20.45;;
11911;SDS011;6016;41.928;25.556;2024-01-16T03:55:50;52.25;;;20.48;;
11911;SDS011;6016;41.928;25.556;2024-01-16T03:58:17;48.92;;;20.02;;
11911;SDS011;6016;41.928;25.556;2024-01-16T04:00:45;52.50;;;20.95;;
11911;SDS011;6016;41.928;25.556;2024-01-16T04:03:12;54.55;;;21.10;;
11911;SDS011;6016;41.928;25.556;2024-01-16T04:05:39;53.40;;;21.95;;
11911;SDS011;6016;41.928;25.556;2024-01-16T04:08:08;53.30;;;20.70;;
11911;SDS011;6016;41.928;25.556;2024-01-16T04:10:35;51.40;;;20.83;;
11911;SDS011;6016;41.928;25.556;2024-01-16T04:13:02;49.75;;;20.83;;
11911;SDS011;6016;41.928;25.556;2024-01-16T04:15:29;57.47;;;21.65;;
11911;SDS011;6016;41.928;25.556;2024-01-16T04:17:57;52.20;;;21.27;;
11911;SDS011;6016;41.928;25.556;2024-01-16T04:20:24;54.78;;;20.85;;
11911;SDS011;6016;41.928;25.556;2024-01-16T04:22:51;53.72;;;20.75;;
11911;SDS011;6016;41.928;25.556;2024-01-16T04:25:20;50.13;;;19.75;;
11911;SDS011;6016;41.928;25.556;2024-01-16T04:27:47;50.75;;;20.13;;
11911;SDS011;6016;41.928;25.556;2024-01-16T04:30:14;50.08;;;19.10;;
11911;SDS011;6016;41.928;25.556;2024-01-16T04:32:41;42.45;;;18.25;;
11911;SDS011;6016;41.928;25.556;2024-01-16T04:35:08;45.33;;;18.67;;
11911;SDS011;6016;41.928;25.556;2024-01-16T04:37:35;42.88;;;19.33;;
11911;SDS011;6016;41.928;25.556;2024-01-16T04:40:03;45.13;;;19.27;;
11911;SDS011;6016;41.928;25.556;2024-01-16T04:42:32;45.10;;;18.98;;
11911;SDS011;6016;41.928;25.556;2024-01-16T04:44:59;45.50;;;17.90;;
11911;SDS011;6016;41.928;25.556;2024-01-16T04:47:27;45.95;;;19.27;;
11911;SDS011;6016;41.928;25.556;2024-01-16T04:49:54;44.15;;;17.73;;
11911;SDS011;6016;41.928;25.556;2024-01-16T04:52:21;45.72;;;18.35;;
11911;SDS011;6016;41.928;25.556;2024-01-16T04:54:48;51.60;;;19.27;;
11911;SDS011;6016;41.928;25.556;2024-01-16T04:57:15;49.72;;;19.90;;
11911;SDS011;6016;41.928;25.556;2024-01-16T04:59:43;45.05;;;19.17;;
11911;SDS011;6016;41.928;25.556;2024-01-16T05:02:10;45.95;;;18.77;;
11911;SDS011;6016;41.928;25.556;2024-01-16T05:04:39;48.05;;;18.77;;
11911;SDS011;6016;41.928;25.556;2024-01-16T05:07:06;50.10;;;19.92;;
11911;SDS011;6016;41.928;25.556;2024-01-16T05:09:33;52.78;;;20.70;;
11911;SDS011;6016;41.928;25.556;2024-01-16T05:12:00;52.67;;;21.00;;
11911;SDS011;6016;41.928;25.556;2024-01-16T05:14:28;54.58;;;22.17;;
11911;SDS011;6016;41.928;25.556;2024-01-16T05:16:56;53.22;;;21.42;;
11911;SDS011;6016;41.928;25.556;2024-01-16T05:19:23;50.22;;;20.08;;
11911;SDS011;6016;41.928;25.556;2024-01-16T05:21:50;56.95;;;21.77;;
11911;SDS011;6016;41.928;25.556;2024-01-16T05:24:17;61.08;;;23.88;;
11911;SDS011;6016;41.928;25.556;2024-01-16T05:26:45;56.30;;;21.88;;
11911;SDS011;6016;41.928;25.556;2024-01-16T05:29:12;45.83;;;19.75;;
11911;SDS011;6016;41.928;25.556;2024-01-16T05:31:39;46.58;;;18.60;;
11911;SDS011;6016;41.928;25.556;2024-01-16T05:34:09;63.95;;;29.02;;
11911;SDS011;6016;41.928;25.556;2024-01-16T05:36:37;74.55;;;29.98;;
11911;SDS011;6016;41.928;25.556;2024-01-16T05:39:04;69.78;;;29.02;;
11911;SDS011;6016;41.928;25.556;2024-01-16T05:41:32;75.75;;;30.27;;
11911;SDS011;6016;41.928;25.556;2024-01-16T05:44:00;84.25;;;31.40;;
11911;SDS011;6016;41.928;25.556;2024-01-16T05:46:28;69.68;;;28.08;;
11911;SDS011;6016;41.928;25.556;2024-01-16T05:48:56;69.88;;;28.73;;
11911;SDS011;6016;41.928;25.556;2024-01-16T05:51:26;67.32;;;26.30;;
11911;SDS011;6016;41.928;25.556;2024-01-16T05:53:54;62.40;;;24.98;;
11911;SDS011;6016;41.928;25.556;2024-01-16T05:56:21;61.08;;;24.67;;
11911;SDS011;6016;41.928;25.556;2024-01-16T05:58:48;68.68;;;27.00;;
11911;SDS011;6016;41.928;25.556;2024-01-16T06:01:15;63.78;;;26.63;;
11911;SDS011;6016;41.928;25.556;2024-01-16T06:03:42;68.47;;;26.42;;
11911;SDS011;6016;41.928;25.556;2024-01-16T06:06:11;70.72;;;28.13;;
11911;SDS011;6016;41.928;25.556;2024-01-16T06:08:40;71.57;;;29.13;;
11911;SDS011;6016;41.928;25.556;2024-01-16T06:11:07;70.00;;;30.70;;
11911;SDS011;6016;41.928;25.556;2024-01-16T06:13:36;68.55;;;27.73;;
11911;SDS011;6016;41.928;25.556;2024-01-16T06:16:03;63.42;;;27.10;;
11911;SDS011;6016;41.928;25.556;2024-01-16T06:18:33;67.65;;;28.23;;
11911;SDS011;6016;41.928;25.556;2024-01-16T06:21:00;70.65;;;29.05;;
11911;SDS011;6016;41.928;25.556;2024-01-16T06:23:27;67.47;;;28.63;;
11911;SDS011;6016;41.928;25.556;2024-01-16T06:25:56;65.55;;;26.17;;
11911;SDS011;6016;41.928;25.556;2024-01-16T06:28:23;54.78;;;24.83;;
11911;SDS011;6016;41.928;25.556;2024-01-16T06:30:51;57.53;;;24.25;;
11911;SDS011;6016;41.928;25.556;2024-01-16T06:33:19;65.68;;;25.55;;
11911;SDS011;6016;41.928;25.556;2024-01-16T06:35:46;74.38;;;30.95;;
11911;SDS011;6016;41.928;25.556;2024-01-16T06:38:13;82.15;;;35.13;;
11911;SDS011;6016;41.928;25.556;2024-01-16T06:40:40;53.30;;;23.77;;
11911;SDS011;6016;41.928;25.556;2024-01-16T06:43:09;75.15;;;36.35;;
11911;SDS011;6016;41.928;25.556;2024-01-16T06:45:39;48.80;;;22.77;;
11911;SDS011;6016;41.928;25.556;2024-01-16T06:48:07;44.42;;;20.10;;
11911;SDS011;6016;41.928;25.556;2024-01-16T06:50:34;43.97;;;22.92;;
11911;SDS011;6016;41.928;25.556;2024-01-16T06:53:02;47.08;;;20.42;;
11911;SDS011;6016;41.928;25.556;2024-01-16T06:55:29;41.53;;;18.25;;
11911;SDS011;6016;41.928;25.556;2024-01-16T06:57:56;45.85;;;19.30;;
11911;SDS011;6016;41.928;25.556;2024-01-16T07:00:25;41.72;;;17.73;;
11911;SDS011;6016;41.928;25.556;2024-01-16T07:02:52;42.85;;;17.95;;
11911;SDS011;6016;41.928;25.556;2024-01-16T07:05:20;37.22;;;17.80;;
11911;SDS011;6016;41.928;25.556;2024-01-16T07:07:47;39.42;;;16.77;;
11911;SDS011;6016;41.928;25.556;2024-01-16T07:10:14;39.08;;;14.73;;
11911;SDS011;6016;41.928;25.556;2024-01-16T07:12:44;39.38;;;16.38;;
11911;SDS011;6016;41.928;25.556;2024-01-16T07:15:12;31.98;;;14.65;;
11911;SDS011;6016;41.928;25.556;2024-01-16T07:17:41;33.65;;;14.93;;
11911;SDS011;6016;41.928;25.556;2024-01-16T07:20:10;33.63;;;14.52;;
11911;SDS011;6016;41.928;25.556;2024-01-16T07:22:37;31.33;;;13.23;;
11911;SDS011;6016;41.928;25.556;2024-01-16T07:25:06;27.75;;;10.88;;
11911;SDS011;6016;41.928;25.556;2024-01-16T07:27:33;26.70;;;10.50;;
11911;SDS011;6016;41.928;25.556;2024-01-16T07:30:00;22.23;;;10.52;;
11911;SDS011;6016;41.928;25.556;2024-01-16T07:32:27;22.58;;;10.27;;
11911;SDS011;6016;41.928;25.556;2024-01-16T07:34:56;24.20;;;10.18;;
11911;SDS011;6016;41.928;25.556;2024-01-16T07:37:23;25.05;;;10.93;;
11911;SDS011;6016;41.928;25.556;2024-01-16T07:39:50;25.08;;;11.70;;
11911;SDS011;6016;41.928;25.556;2024-01-16T07:42:17;24.15;;;10.68;;
11911;SDS011;6016;41.928;25.556;2024-01-16T07:44:45;26.50;;;11.52;;
11911;SDS011;6016;41.928;25.556;2024-01-16T07:47:12;29.65;;;12.52;;
11911;SDS011;6016;41.928;25.556;2024-01-16T07:49:39;27.30;;;12.25;;
11911;SDS011;6016;41.928;25.556;2024-01-16T07:52:08;25.17;;;11.70;;
11911;SDS011;6016;41.928;25.556;2024-01-16T07:54:37;23.08;;;11.35;;
11911;SDS011;6016;41.928;25.556;2024-01-16T07:57:04;26.15;;;11.38;;
11911;SDS011;6016;41.928;25.556;2024-01-16T07:59:31;25.70;;;11.55;;
11911;SDS011;6016;41.928;25.556;2024-01-16T08:01:58;33.08;;;11.52;;
11911;SDS011;6016;41.928;25.556;2024-01-16T08:04:25;24.17;;;11.10;;
11911;SDS011;6016;41.928;25.556;2024-01-16T08:06:53;28.02;;;11.77;;
11911;SDS011;6016;41.928;25.556;2024-01-16T08:09:21;26.92;;;11.98;;
11911;SDS011;6016;41.928;25.556;2024-01-16T08:11:49;25.17;;;11.38;;
11911;SDS011;6016;41.928;25.556;2024-01-16T08:14:16;33.47;;;15.55;;
11911;SDS011;6016;41.928;25.556;2024-01-16T08:16:44;30.75;;;14.10;;
11911;SDS011;6016;41.928;25.556;2024-01-16T08:19:11;39.80;;;17.80;;
11911;SDS011;6016;41.928;25.556;2024-01-16T08:21:38;30.13;;;13.40;;
11911;SDS011;6016;41.928;25.556;2024-01-16T08:24:05;37.17;;;17.67;;
11911;SDS011;6016;41.928;25.556;2024-01-16T08:26:34;30.63;;;15.73;;
11911;SDS011;6016;41.928;25.556;2024-01-16T08:29:02;25.73;;;12.57;;
11911;SDS011;6016;41.928;25.556;2024-01-16T08:31:30;26.25;;;13.05;;
11911;SDS011;6016;41.928;25.556;2024-01-16T08:33:57;28.42;;;12.98;;
11911;SDS011;6016;41.928;25.556;2024-01-16T08:36:24;40.90;;;18.15;;
11911;SDS011;6016;41.928;25.556;2024-01-16T08:38:52;34.17;;;15.07;;
11911;SDS011;6016;41.928;25.556;2024-01-16T08:41:20;45.30;;;20.23;;
11911;SDS011;6016;41.928;25.556;2024-01-16T08:43:49;42.90;;;19.40;;
11911;SDS011;6016;41.928;25.556;2024-01-16T08:46:16;32.75;;;15.18;;
11911;SDS011;6016;41.928;25.556;2024-01-16T08:48:44;31.90;;;14.13;;
11911;SDS011;6016;41.928;25.556;2024-01-16T08:51:12;32.22;;;14.98;;
11911;SDS011;6016;41.928;25.556;2024-01-16T08:53:39;36.08;;;15.63;;
11911;SDS011;6016;41.928;25.556;2024-01-16T08:56:07;43.35;;;18.17;;
11911;SDS011;6016;41.928;25.556;2024-01-16T08:58:34;37.72;;;17.05;;
11911;SDS011;6016;41.928;25.556;2024-01-16T09:01:04;46.17;;;19.75;;
11911;SDS011;6016;41.928;25.556;2024-01-16T09:03:32;37.47;;;16.40;;
11911;SDS011;6016;41.928;25.556;2024-01-16T09:05:59;38.15;;;15.85;;
11911;SDS011;6016;41.928;25.556;2024-01-16T09:08:27;44.30;;;19.20;;
11911;SDS011;6016;41.928;25.556;2024-01-16T09:10:54;33.78;;;15.70;;
11911;SDS011;6016;41.928;25.556;2024-01-16T09:13:21;32.83;;;14.40;;
11911;SDS011;6016;41.928;25.556;2024-01-16T09:15:49;33.08;;;14.15;;
11911;SDS011;6016;41.928;25.556;2024-01-16T09:18:17;39.58;;;19.15;;
11911;SDS011;6016;41.928;25.556;2024-01-16T09:20:45;45.83;;;19.92;;
11911;SDS011;6016;41.928;25.556;2024-01-16T09:23:12;29.33;;;14.15;;
11911;SDS011;6016;41.928;25.556;2024-01-16T09:25:39;33.00;;;14.18;;
11911;SDS011;6016;41.928;25.556;2024-01-16T09:28:06;37.90;;;14.43;;
11911;SDS011;6016;41.928;25.556;2024-01-16T09:30:33;25.17;;;11.50;;
11911;SDS011;6016;41.928;25.556;2024-01-16T09:33:00;27.70;;;12.70;;
11911;SDS011;6016;41.928;25.556;2024-01-16T09:35:31;20.85;;;10.68;;
11911;SDS011;6016;41.928;25.556;2024-01-16T09:37:58;25.65;;;10.98;;
11911;SDS011;6016;41.928;25.556;2024-01-16T09:40:25;21.05;;;10.70;;
11911;SDS011;6016;41.928;25.556;2024-01-16T09:42:53;29.52;;;12.13;;
11911;SDS011;6016;41.928;25.556;2024-01-16T09:45:21;22.15;;;10.80;;
11911;SDS011;6016;41.928;25.556;2024-01-16T09:47:49;19.98;;;9.68;;
11911;SDS011;6016;41.928;25.556;2024-01-16T09:50:17;24.73;;;10.98;;
11911;SDS011;6016;41.928;25.556;2024-01-16T09:52:46;19.75;;;9.43;;
11911;SDS011;6016;41.928;25.556;2024-01-16T09:55:14;17.83;;;9.30;;
11911;SDS011;6016;41.928;25.556;2024-01-16T09:57:41;14.82;;;7.97;;
11911;SDS011;6016;41.928;25.556;2024-01-16T10:00:12;18.40;;;8.32;;
11911;SDS011;6016;41.928;25.556;2024-01-16T10:02:40;25.67;;;11.55;;
11911;SDS011;6016;41.928;25.556;2024-01-16T10:05:09;16.75;;;7.70;;
11911;SDS011;6016;41.928;25.556;2024-01-16T10:07:37;25.75;;;10.70;;
11911;SDS011;6016;41.928;25.556;2024-01-16T10:10:07;12.15;;;5.38;;
11911;SDS011;6016;41.928;25.556;2024-01-16T10:12:36;12.00;;;6.07;;
11911;SDS011;6016;41.928;25.556;2024-01-16T10:15:05;12.25;;;6.05;;
11911;SDS011;6016;41.928;25.556;2024-01-16T10:17:37;25.83;;;11.38;;
11911;SDS011;6016;41.928;25.556;2024-01-16T10:20:05;14.43;;;6.38;;
11911;SDS011;6016;41.928;25.556;2024-01-16T10:22:38;10.20;;;4.55;;
11911;SDS011;6016;41.928;25.556;2024-01-16T10:25:08;7.25;;;4.28;;
11911;SDS011;6016;41.928;25.556;2024-01-16T10:27:37;6.07;;;3.60;;
11911;SDS011;6016;41.928;25.556;2024-01-16T10:30:06;8.20;;;5.00;;
11911;SDS011;6016;41.928;25.556;2024-01-16T10:32:34;9.68;;;4.43;;
11911;SDS011;6016;41.928;25.556;2024-01-16T10:35:03;12.05;;;5.70;;
11911;SDS011;6016;41.928;25.556;2024-01-16T10:37:33;7.40;;;4.38;;
11911;SDS011;6016;41.928;25.556;2024-01-16T10:40:09;8.15;;;4.40;;
11911;SDS011;6016;41.928;25.556;2024-01-16T10:42:37;6.22;;;3.53;;
11911;SDS011;6016;41.928;25.556;2024-01-16T10:45:05;6.85;;;3.80;;
11911;SDS011;6016;41.928;25.556;2024-01-16T10:47:33;8.57;;;4.28;;
11911;SDS011;6016;41.928;25.556;2024-01-16T10:50:03;7.47;;;3.80;;
11911;SDS011;6016;41.928;25.556;2024-01-16T10:52:34;5.20;;;3.57;;
11911;SDS011;6016;41.928;25.556;2024-01-16T10:55:08;6.60;;;3.60;;
11911;SDS011;6016;41.928;25.556;2024-01-16T10:57:37;6.97;;;3.55;;
11911;SDS011;6016;41.928;25.556;2024-01-16T11:00:07;4.93;;;3.15;;
11911;SDS011;6016;41.928;25.556;2024-01-16T11:02:41;6.53;;;2.78;;
11911;SDS011;6016;41.928;25.556;2024-01-16T11:05:16;5.85;;;2.28;;
11911;SDS011;6016;41.928;25.556;2024-01-16T11:07:44;9.35;;;4.43;;
11911;SDS011;6016;41.928;25.556;2024-01-16T11:10:13;7.00;;;3.55;;
11911;SDS011;6016;41.928;25.556;2024-01-16T11:12:40;4.78;;;2.42;;
11911;SDS011;6016;41.928;25.556;2024-01-16T11:15:08;5.28;;;2.22;;
11911;SDS011;6016;41.928;25.556;2024-01-16T11:17:38;9.38;;;5.35;;
11911;SDS011;6016;41.928;25.556;2024-01-16T11:20:08;8.75;;;5.97;;
11911;SDS011;6016;41.928;25.556;2024-01-16T11:22:39;3.80;;;2.17;;
11911;SDS011;6016;41.928;25.556;2024-01-16T11:25:09;2.70;;;1.92;;
11911;SDS011;6016;41.928;25.556;2024-01-16T11:27:39;4.22;;;1.80;;
11911;SDS011;6016;41.928;25.556;2024-01-16T11:30:07;3.47;;;2.30;;
11911;SDS011;6016;41.928;25.556;2024-01-16T11:32:36;2.75;;;1.65;;
11911;SDS011;6016;41.928;25.556;2024-01-16T11:35:05;2.50;;;1.50;;
11911;SDS011;6016;41.928;25.556;2024-01-16T11:37:33;1.80;;;1.33;;
11911;SDS011;6016;41.928;25.556;2024-01-16T11:40:24;4.50;;;2.40;;
11911;SDS011;6016;41.928;25.556;2024-01-16T11:42:54;6.32;;;3.65;;
11911;SDS011;6016;41.928;25.556;2024-01-16T11:48:15;8.15;;;3.70;;
11911;SDS011;6016;41.928;25.556;2024-01-16T11:50:43;6.40;;;3.50;;
11911;SDS011;6016;41.928;25.556;2024-01-16T11:53:10;4.35;;;2.65;;
11911;SDS011;6016;41.928;25.556;2024-01-16T11:55:42;3.53;;;2.53;;
11911;SDS011;6016;41.928;25.556;2024-01-16T11:58:25;6.50;;;3.50;;
11911;SDS011;6016;41.928;25.556;2024-01-16T12:01:03;5.05;;;1.90;;
11911;SDS011;6016;41.928;25.556;2024-01-16T12:03:32;3.85;;;2.30;;
11911;SDS011;6016;41.928;25.556;2024-01-16T12:06:00;4.05;;;2.20;;
11911;SDS011;6016;41.928;25.556;2024-01-16T12:08:28;3.58;;;2.08;;
11911;SDS011;6016;41.928;25.556;2024-01-16T12:10:55;4.30;;;2.13;;
11911;SDS011;6016;41.928;25.556;2024-01-16T12:13:24;3.33;;;1.92;;
11911;SDS011;6016;41.928;25.556;2024-01-16T12:15:58;4.60;;;2.50;;
11911;SDS011;6016;41.928;25.556;2024-01-16T12:18:26;6.60;;;2.45;;
11911;SDS011;6016;41.928;25.556;2024-01-16T12:20:53;2.85;;;1.83;;
11911;SDS011;6016;41.928;25.556;2024-01-16T12:23:20;3.97;;;2.35;;
11911;SDS011;6016;41.928;25.556;2024-01-16T12:25:51;4.25;;;2.13;;
11911;SDS011;6016;41.928;25.556;2024-01-16T12:28:20;5.00;;;2.83;;
11911;SDS011;6016;41.928;25.556;2024-01-16T12:30:50;5.32;;;2.45;;
11911;SDS011;6016;41.928;25.556;2024-01-16T12:33:21;16.00;;;7.20;;
11911;SDS011;6016;41.928;25.556;2024-01-16T12:35:49;7.28;;;3.95;;
11911;SDS011;6016;41.928;25.556;2024-01-16T12:38:16;6.30;;;3.33;;
11911;SDS011;6016;41.928;25.556;2024-01-16T12:40:44;4.45;;;2.70;;
11911;SDS011;6016;41.928;25.556;2024-01-16T12:43:16;3.75;;;2.78;;
11911;SDS011;6016;41.928;25.556;2024-01-16T12:45:44;4.35;;;2.45;;
11911;SDS011;6016;41.928;25.556;2024-01-16T12:48:13;4.28;;;2.45;;
11911;SDS011;6016;41.928;25.556;2024-01-16T12:50:40;3.55;;;2.42;;
11911;SDS011;6016;41.928;25.556;2024-01-16T12:53:08;8.25;;;4.80;;
11911;SDS011;6016;41.928;25.556;2024-01-16T12:55:36;4.05;;;2.20;;
11911;SDS011;6016;41.928;25.556;2024-01-16T12:58:13;4.53;;;2.63;;
11911;SDS011;6016;41.928;25.556;2024-01-16T13:00:41;3.63;;;2.30;;
11911;SDS011;6016;41.928;25.556;2024-01-16T13:03:15;7.55;;;2.55;;
11911;SDS011;6016;41.928;25.556;2024-01-16T13:05:43;3.58;;;2.63;;
11911;SDS011;6016;41.928;25.556;2024-01-16T13:08:18;5.32;;;2.30;;
11911;SDS011;6016;41.928;25.556;2024-01-16T13:10:46;6.47;;;3.38;;
11911;SDS011;6016;41.928;25.556;2024-01-16T13:13:14;9.07;;;4.88;;
11911;SDS011;6016;41.928;25.556;2024-01-16T13:15:42;8.25;;;4.45;;
11911;SDS011;6016;41.928;25.556;2024-01-16T13:18:21;4.93;;;2.67;;
11911;SDS011;6016;41.928;25.556;2024-01-16T13:20:50;4.43;;;2.45;;
11911;SDS011;6016;41.928;25.556;2024-01-16T13:23:19;3.47;;;2.20;;
11911;SDS011;6016;41.928;25.556;2024-01-16T13:25:48;5.45;;;2.58;;
11911;SDS011;6016;41.928;25.556;2024-01-16T13:28:16;6.60;;;3.67;;
11911;SDS011;6016;41.928;25.556;2024-01-16T13:30:45;8.88;;;2.97;;
11911;SDS011;6016;41.928;25.556;2024-01-16T13:33:13;4.68;;;2.15;;
11911;SDS011;6016;41.928;25.556;2024-01-16T13:35:42;6.75;;;3.20;;
11911;SDS011;6016;41.928;25.556;2024-01-16T13:38:12;4.38;;;2.63;;
11911;SDS011;6016;41.928;25.556;2024-01-16T13:40:40;5.18;;;2.80;;
11911;SDS011;6016;41.928;25.556;2024-01-16T13:43:08;5.80;;;2.10;;
11911;SDS011;6016;41.928;25.556;2024-01-16T13:45:36;6.22;;;3.20;;
11911;SDS011;6016;41.928;25.556;2024-01-16T13:48:05;6.68;;;3.25;;
11911;SDS011;6016;41.928;25.556;2024-01-16T13:50:32;7.65;;;3.53;;
11911;SDS011;6016;41.928;25.556;2024-01-16T13:53:01;4.95;;;2.80;;
11911;SDS011;6016;41.928;25.556;2024-01-16T13:55:29;7.55;;;3.33;;
11911;SDS011;6016;41.928;25.556;2024-01-16T13:57:57;33.97;;;19.65;;
11911;SDS011;6016;41.928;25.556;2024-01-16T14:00:24;9.70;;;6.72;;
11911;SDS011;6016;41.928;25.556;2024-01-16T14:02:51;4.07;;;2.58;;
11911;SDS011;6016;41.928;25.556;2024-01-16T14:05:20;3.70;;;2.10;;
11911;SDS011;6016;41.928;25.556;2024-01-16T14:07:48;5.97;;;3.85;;
11911;SDS011;6016;41.928;25.556;2024-01-16T14:10:18;5.15;;;2.40;;
11911;SDS011;6016;41.928;25.556;2024-01-16T14:12:47;7.70;;;4.75;;
11911;SDS011;6016;41.928;25.556;2024-01-16T14:15:15;18.20;;;7.70;;
11911;SDS011;6016;41.928;25.556;2024-01-16T14:17:46;10.13;;;5.00;;
11911;SDS011;6016;41.928;25.556;2024-01-16T14:20:15;5.63;;;3.17;;
11911;SDS011;6016;41.928;25.556;2024-01-16T14:22:43;4.47;;;2.42;;
11911;SDS011;6016;41.928;25.556;2024-01-16T14:25:10;9.68;;;3.08;;
11911;SDS011;6016;41.928;25.556;2024-01-16T14:27:39;3.97;;;2.03;;
11911;SDS011;6016;41.928;25.556;2024-01-16T14:30:07;13.82;;;4.07;;
11911;SDS011;6016;41.928;25.556;2024-01-16T14:32:36;10.23;;;4.80;;
11911;SDS011;6016;41.928;25.556;2024-01-16T14:35:04;5.22;;;2.60;;
11911;SDS011;6016;41.928;25.556;2024-01-16T14:37:32;4.90;;;2.40;;